sensor_id;sensor_type;location;lat;lon;timestamp;P1;durP1;ratioP1;P2;durP2;ratioP2
12587;SDS011;6359;51.450;7.346;2023-04-04T00:01:00;10.17;;;3.33;;
12587;SDS011;6359;51.450;7.346;2023-04-04T00:03:27;5.80;;;3.43;;
12587;SDS011;6359;51.450;7.346;2023-04-04T00:05:54;3.87;;;2.93;;
12587;SDS011;6359;51.450;7.346;2023-04-04T00:08:23;6.23;;;3.10;;
12587;SDS011;6359;51.450;7.346;2023-04-04T00:10:55;4.93;;;3.37;;
12587;SDS011;6359;51.450;7.346;2023-04-04T00:13:23;9.53;;;3.67;;
12587;SDS011;6359;51.450;7.346;2023-04-04T00:15:51;9.07;;;3.30;;
12587;SDS011;6359;51.450;7.346;2023-04-04T00:18:18;5.07;;;3.13;;
12587;SDS011;6359;51.450;7.346;2023-04-04T00:20:45;11.60;;;3.60;;
12587;SDS011;6359;51.450;7.346;2023-04-04T00:23:12;6.73;;;3.30;;
12587;SDS011;6359;51.450;7.346;2023-04-04T00:25:41;5.70;;;2.87;;
12587;SDS011;6359;51.450;7.346;2023-04-04T00:28:08;10.57;;;3.10;;
12587;SDS011;6359;51.450;7.346;2023-04-04T00:30:35;5.37;;;3.33;;
12587;SDS011;6359;51.450;7.346;2023-04-04T00:33:02;10.73;;;3.63;;
12587;SDS011;6359;51.450;7.346;2023-04-04T00:35:30;6.50;;;3.47;;
12587;SDS011;6359;51.450;7.346;2023-04-04T00:37:57;12.10;;;3.57;;
12587;SDS011;6359;51.450;7.346;2023-04-04T00:40:24;8.93;;;3.80;;
12587;SDS011;6359;51.450;7.346;2023-04-04T00:42:53;6.17;;;3.90;;
12587;SDS011;6359;51.450;7.346;2023-04-04T00:45:20;10.67;;;3.33;;
12587;SDS011;6359;51.450;7.346;2023-04-04T00:47:47;8.93;;;3.57;;
12587;SDS011;6359;51.450;7.346;2023-04-04T00:50:15;6.87;;;3.10;;
12587;SDS011;6359;51.450;7.346;2023-04-04T00:52:42;9.83;;;3.90;;
12587;SDS011;6359;51.450;7.346;2023-04-04T00:55:09;5.53;;;3.80;;
12587;SDS011;6359;51.450;7.346;2023-04-04T00:57:36;7.70;;;3.70;;
12587;SDS011;6359;51.450;7.346;2023-04-04T01:00:06;8.33;;;3.93;;
12587;SDS011;6359;51.450;7.346;2023-04-04T01:02:34;8.60;;;3.87;;
12587;SDS011;6359;51.450;7.346;2023-04-04T01:05:01;4.07;;;3.50;;
12587;SDS011;6359;51.450;7.346;2023-04-04T01:07:29;7.27;;;3.93;;
12587;SDS011;6359;51.450;7.346;2023-04-04T01:09:55;6.37;;;3.67;;
12587;SDS011;6359;51.450;7.346;2023-04-04T01:12:23;4.53;;;3.33;;
12587;SDS011;6359;51.450;7.346;2023-04-04T01:14:51;7.87;;;3.60;;
12587;SDS011;6359;51.450;7.346;2023-04-04T01:17:19;4.10;;;2.97;;
12587;SDS011;6359;51.450;7.346;2023-04-04T01:19:48;5.33;;;3.50;;
12587;SDS011;6359;51.450;7.346;2023-04-04T01:22:24;6.30;;;3.10;;
12587;SDS011;6359;51.450;7.346;2023-04-04T01:24:54;4.10;;;2.97;;
12587;SDS011;6359;51.450;7.346;2023-04-04T01:27:23;5.43;;;3.83;;
12587;SDS011;6359;51.450;7.346;2023-04-04T01:29:50;4.20;;;2.83;;
12587;SDS011;6359;51.450;7.346;2023-04-04T01:32:18;3.70;;;3.13;;
12587;SDS011;6359;51.450;7.346;2023-04-04T01:34:49;4.23;;;3.20;;
12587;SDS011;6359;51.450;7.346;2023-04-04T01:37:23;7.33;;;3.33;;
12587;SDS011;6359;51.450;7.346;2023-04-04T01:39:55;6.20;;;3.43;;
12587;SDS011;6359;51.450;7.346;2023-04-04T01:42:30;5.37;;;3.63;;
12587;SDS011;6359;51.450;7.346;2023-04-04T01:44:58;8.20;;;3.40;;
12587;SDS011;6359;51.450;7.346;2023-04-04T01:47:25;6.20;;;3.40;;
12587;SDS011;6359;51.450;7.346;2023-04-04T01:49:53;5.37;;;3.07;;
12587;SDS011;6359;51.450;7.346;2023-04-04T01:52:20;7.03;;;3.23;;
12587;SDS011;6359;51.450;7.346;2023-04-04T01:54:47;6.33;;;3.40;;
12587;SDS011;6359;51.450;7.346;2023-04-04T01:57:14;6.33;;;3.50;;
12587;SDS011;6359;51.450;7.346;2023-04-04T01:59:43;7.07;;;3.43;;
12587;SDS011;6359;51.450;7.346;2023-04-04T02:02:09;8.10;;;4.00;;
12587;SDS011;6359;51.450;7.346;2023-04-04T02:04:36;7.10;;;3.53;;
12587;SDS011;6359;51.450;7.346;2023-04-04T02:07:04;6.33;;;3.20;;
12587;SDS011;6359;51.450;7.346;2023-04-04T02:09:32;5.60;;;3.77;;
12587;SDS011;6359;51.450;7.346;2023-04-04T02:11:59;5.57;;;3.13;;
12587;SDS011;6359;51.450;7.346;2023-04-04T02:14:26;5.47;;;3.60;;
12587;SDS011;6359;51.450;7.346;2023-04-04T02:16:54;6.33;;;3.20;;
12587;SDS011;6359;51.450;7.346;2023-04-04T02:19:21;4.50;;;3.23;;
12587;SDS011;6359;51.450;7.346;2023-04-04T02:21:49;6.33;;;3.40;;
12587;SDS011;6359;51.450;7.346;2023-04-04T02:24:17;4.83;;;3.40;;
12587;SDS011;6359;51.450;7.346;2023-04-04T02:26:43;4.83;;;4.00;;
12587;SDS011;6359;51.450;7.346;2023-04-04T02:29:10;6.63;;;3.90;;
12587;SDS011;6359;51.450;7.346;2023-04-04T02:31:37;6.43;;;4.17;;
12587;SDS011;6359;51.450;7.346;2023-04-04T02:34:06;6.37;;;3.40;;
12587;SDS011;6359;51.450;7.346;2023-04-04T02:36:33;6.13;;;3.67;;
12587;SDS011;6359;51.450;7.346;2023-04-04T02:39:01;5.17;;;3.70;;
12587;SDS011;6359;51.450;7.346;2023-04-04T02:41:29;4.33;;;3.47;;
12587;SDS011;6359;51.450;7.346;2023-04-04T02:43:57;5.97;;;3.70;;
12587;SDS011;6359;51.450;7.346;2023-04-04T02:46:24;6.43;;;3.67;;
12587;SDS011;6359;51.450;7.346;2023-04-04T02:48:51;3.37;;;3.07;;
12587;SDS011;6359;51.450;7.346;2023-04-04T02:51:20;6.50;;;3.13;;
12587;SDS011;6359;51.450;7.346;2023-04-04T02:53:47;5.30;;;3.47;;
12587;SDS011;6359;51.450;7.346;2023-04-04T02:56:14;4.67;;;3.77;;
12587;SDS011;6359;51.450;7.346;2023-04-04T02:58:41;7.13;;;4.00;;
12587;SDS011;6359;51.450;7.346;2023-04-04T03:01:07;9.10;;;3.90;;
12587;SDS011;6359;51.450;7.346;2023-04-04T03:03:34;6.17;;;3.73;;
12587;SDS011;6359;51.450;7.346;2023-04-04T03:06:02;6.67;;;4.07;;
12587;SDS011;6359;51.450;7.346;2023-04-04T03:08:30;8.17;;;4.00;;
12587;SDS011;6359;51.450;7.346;2023-04-04T03:10:59;7.27;;;3.63;;
12587;SDS011;6359;51.450;7.346;2023-04-04T03:13:26;6.77;;;3.80;;
12587;SDS011;6359;51.450;7.346;2023-04-04T03:15:56;6.17;;;3.90;;
12587;SDS011;6359;51.450;7.346;2023-04-04T03:18:26;6.80;;;3.60;;
12587;SDS011;6359;51.450;7.346;2023-04-04T03:20:54;6.63;;;4.17;;
12587;SDS011;6359;51.450;7.346;2023-04-04T03:23:21;5.80;;;3.70;;
12587;SDS011;6359;51.450;7.346;2023-04-04T03:25:49;6.83;;;4.37;;
12587;SDS011;6359;51.450;7.346;2023-04-04T03:28:19;13.63;;;4.57;;
12587;SDS011;6359;51.450;7.346;2023-04-04T03:30:46;7.90;;;4.53;;
12587;SDS011;6359;51.450;7.346;2023-04-04T03:33:13;4.43;;;3.73;;
12587;SDS011;6359;51.450;7.346;2023-04-04T03:35:41;9.90;;;4.47;;
12587;SDS011;6359;51.450;7.346;2023-04-04T03:38:08;9.27;;;4.33;;
12587;SDS011;6359;51.450;7.346;2023-04-04T03:40:36;13.47;;;4.33;;
12587;SDS011;6359;51.450;7.346;2023-04-04T03:43:06;6.50;;;4.03;;
12587;SDS011;6359;51.450;7.346;2023-04-04T03:45:33;7.37;;;3.97;;
12587;SDS011;6359;51.450;7.346;2023-04-04T03:48:01;8.17;;;3.97;;
12587;SDS011;6359;51.450;7.346;2023-04-04T03:50:28;9.10;;;3.73;;
12587;SDS011;6359;51.450;7.346;2023-04-04T03:52:55;7.20;;;4.00;;
12587;SDS011;6359;51.450;7.346;2023-04-04T03:55:23;6.07;;;4.40;;
12587;SDS011;6359;51.450;7.346;2023-04-04T03:57:51;8.37;;;4.37;;
12587;SDS011;6359;51.450;7.346;2023-04-04T04:00:20;5.83;;;3.87;;
12587;SDS011;6359;51.450;7.346;2023-04-04T04:02:47;4.67;;;3.90;;
12587;SDS011;6359;51.450;7.346;2023-04-04T04:05:14;6.90;;;4.07;;
12587;SDS011;6359;51.450;7.346;2023-04-04T04:07:41;12.83;;;4.03;;
12587;SDS011;6359;51.450;7.346;2023-04-04T04:10:09;6.00;;;4.13;;
12587;SDS011;6359;51.450;7.346;2023-04-04T04:12:38;8.17;;;4.50;;
12587;SDS011;6359;51.450;7.346;2023-04-04T04:15:05;6.80;;;4.63;;
12587;SDS011;6359;51.450;7.346;2023-04-04T04:17:35;6.40;;;4.43;;
12587;SDS011;6359;51.450;7.346;2023-04-04T04:20:05;14.37;;;4.97;;
12587;SDS011;6359;51.450;7.346;2023-04-04T04:22:33;12.67;;;4.17;;
12587;SDS011;6359;51.450;7.346;2023-04-04T04:25:00;7.37;;;4.47;;
12587;SDS011;6359;51.450;7.346;2023-04-04T04:27:27;7.70;;;4.60;;
12587;SDS011;6359;51.450;7.346;2023-04-04T04:29:54;8.00;;;4.40;;
12587;SDS011;6359;51.450;7.346;2023-04-04T04:32:21;7.03;;;3.17;;
12587;SDS011;6359;51.450;7.346;2023-04-04T04:34:52;8.20;;;4.00;;
12587;SDS011;6359;51.450;7.346;2023-04-04T04:37:19;5.83;;;4.40;;
12587;SDS011;6359;51.450;7.346;2023-04-04T04:39:46;6.97;;;4.20;;
12587;SDS011;6359;51.450;7.346;2023-04-04T04:42:12;8.43;;;4.43;;
12587;SDS011;6359;51.450;7.346;2023-04-04T04:44:40;7.70;;;4.50;;
12587;SDS011;6359;51.450;7.346;2023-04-04T04:47:06;9.10;;;3.83;;
12587;SDS011;6359;51.450;7.346;2023-04-04T04:49:34;6.20;;;4.50;;
12587;SDS011;6359;51.450;7.346;2023-04-04T04:52:02;10.53;;;4.47;;
12587;SDS011;6359;51.450;7.346;2023-04-04T04:54:29;7.83;;;4.80;;
12587;SDS011;6359;51.450;7.346;2023-04-04T04:56:56;13.13;;;5.03;;
12587;SDS011;6359;51.450;7.346;2023-04-04T04:59:24;11.40;;;4.70;;
12587;SDS011;6359;51.450;7.346;2023-04-04T05:01:51;9.63;;;4.90;;
12587;SDS011;6359;51.450;7.346;2023-04-04T05:04:18;7.83;;;4.40;;
12587;SDS011;6359;51.450;7.346;2023-04-04T05:06:45;9.30;;;4.97;;
12587;SDS011;6359;51.450;7.346;2023-04-04T05:09:14;10.93;;;4.67;;
12587;SDS011;6359;51.450;7.346;2023-04-04T05:11:41;10.80;;;4.83;;
12587;SDS011;6359;51.450;7.346;2023-04-04T05:14:08;16.77;;;4.30;;
12587;SDS011;6359;51.450;7.346;2023-04-04T05:16:35;8.60;;;5.00;;
12587;SDS011;6359;51.450;7.346;2023-04-04T05:19:02;15.40;;;4.67;;
12587;SDS011;6359;51.450;7.346;2023-04-04T05:21:29;11.70;;;4.80;;
12587;SDS011;6359;51.450;7.346;2023-04-04T05:23:56;19.83;;;5.70;;
12587;SDS011;6359;51.450;7.346;2023-04-04T05:26:25;11.53;;;4.63;;
12587;SDS011;6359;51.450;7.346;2023-04-04T05:28:53;23.67;;;5.47;;
12587;SDS011;6359;51.450;7.346;2023-04-04T05:31:20;10.47;;;5.13;;
12587;SDS011;6359;51.450;7.346;2023-04-04T05:33:47;14.90;;;5.17;;
12587;SDS011;6359;51.450;7.346;2023-04-04T05:36:14;10.00;;;5.00;;
12587;SDS011;6359;51.450;7.346;2023-04-04T05:38:41;11.57;;;4.63;;
12587;SDS011;6359;51.450;7.346;2023-04-04T05:41:08;14.03;;;5.23;;
12587;SDS011;6359;51.450;7.346;2023-04-04T05:43:36;11.20;;;4.60;;
12587;SDS011;6359;51.450;7.346;2023-04-04T05:46:03;15.17;;;5.53;;
12587;SDS011;6359;51.450;7.346;2023-04-04T05:48:30;11.77;;;4.83;;
12587;SDS011;6359;51.450;7.346;2023-04-04T05:50:57;13.20;;;4.63;;
12587;SDS011;6359;51.450;7.346;2023-04-04T05:53:24;20.27;;;5.60;;
12587;SDS011;6359;51.450;7.346;2023-04-04T05:55:51;19.73;;;5.93;;
12587;SDS011;6359;51.450;7.346;2023-04-04T05:58:18;27.97;;;6.33;;
12587;SDS011;6359;51.450;7.346;2023-04-04T06:00:47;23.23;;;5.50;;
12587;SDS011;6359;51.450;7.346;2023-04-04T06:03:14;20.47;;;5.50;;
12587;SDS011;6359;51.450;7.346;2023-04-04T06:05:41;16.67;;;5.30;;
12587;SDS011;6359;51.450;7.346;2023-04-04T06:08:09;23.20;;;5.73;;
12587;SDS011;6359;51.450;7.346;2023-04-04T06:10:36;18.30;;;5.50;;
12587;SDS011;6359;51.450;7.346;2023-04-04T06:13:03;19.67;;;5.83;;
12587;SDS011;6359;51.450;7.346;2023-04-04T06:15:30;21.27;;;5.30;;
12587;SDS011;6359;51.450;7.346;2023-04-04T06:17:59;12.27;;;5.57;;
12587;SDS011;6359;51.450;7.346;2023-04-04T06:20:26;13.27;;;5.30;;
12587;SDS011;6359;51.450;7.346;2023-04-04T06:22:53;10.97;;;5.73;;
12587;SDS011;6359;51.450;7.346;2023-04-04T06:25:20;13.97;;;6.33;;
12587;SDS011;6359;51.450;7.346;2023-04-04T06:27:47;18.33;;;6.10;;
12587;SDS011;6359;51.450;7.346;2023-04-04T06:30:14;13.07;;;5.30;;
12587;SDS011;6359;51.450;7.346;2023-04-04T06:32:42;20.93;;;5.77;;
12587;SDS011;6359;51.450;7.346;2023-04-04T06:35:10;20.67;;;5.57;;
12587;SDS011;6359;51.450;7.346;2023-04-04T06:37:37;11.03;;;4.97;;
12587;SDS011;6359;51.450;7.346;2023-04-04T06:40:05;13.33;;;5.80;;
12587;SDS011;6359;51.450;7.346;2023-04-04T06:42:33;11.57;;;5.13;;
12587;SDS011;6359;51.450;7.346;2023-04-04T06:45:00;9.43;;;5.47;;
12587;SDS011;6359;51.450;7.346;2023-04-04T06:47:27;11.90;;;5.03;;
12587;SDS011;6359;51.450;7.346;2023-04-04T06:49:54;12.57;;;5.47;;
12587;SDS011;6359;51.450;7.346;2023-04-04T06:52:23;9.77;;;4.57;;
12587;SDS011;6359;51.450;7.346;2023-04-04T06:54:51;10.05;;;4.75;;
12587;SDS011;6359;51.450;7.346;2023-04-04T06:57:18;9.30;;;4.60;;
12587;SDS011;6359;51.450;7.346;2023-04-04T06:59:45;10.00;;;3.78;;
12587;SDS011;6359;51.450;7.346;2023-04-04T07:02:12;9.38;;;4.22;;
12587;SDS011;6359;51.450;7.346;2023-04-04T07:04:39;5.18;;;3.55;;
12587;SDS011;6359;51.450;7.346;2023-04-04T07:07:06;6.90;;;3.70;;
12587;SDS011;6359;51.450;7.346;2023-04-04T07:09:35;11.68;;;4.15;;
12587;SDS011;6359;51.450;7.346;2023-04-04T07:12:02;12.57;;;4.10;;
12587;SDS011;6359;51.450;7.346;2023-04-04T07:14:29;7.57;;;3.70;;
12587;SDS011;6359;51.450;7.346;2023-04-04T07:16:57;8.88;;;4.00;;
12587;SDS011;6359;51.450;7.346;2023-04-04T07:19:24;6.15;;;3.72;;
12587;SDS011;6359;51.450;7.346;2023-04-04T07:21:52;7.72;;;3.70;;
12587;SDS011;6359;51.450;7.346;2023-04-04T07:24:19;5.38;;;3.33;;
12587;SDS011;6359;51.450;7.346;2023-04-04T07:26:48;7.00;;;3.97;;
12587;SDS011;6359;51.450;7.346;2023-04-04T07:29:15;6.30;;;3.53;;
12587;SDS011;6359;51.450;7.346;2023-04-04T07:31:42;6.65;;;3.70;;
12587;SDS011;6359;51.450;7.346;2023-04-04T07:34:09;9.65;;;3.15;;
12587;SDS011;6359;51.450;7.346;2023-04-04T07:36:36;5.47;;;2.80;;
12587;SDS011;6359;51.450;7.346;2023-04-04T07:39:03;5.15;;;3.33;;
12587;SDS011;6359;51.450;7.346;2023-04-04T07:41:30;6.05;;;3.10;;
12587;SDS011;6359;51.450;7.346;2023-04-04T07:43:59;11.40;;;4.05;;
12587;SDS011;6359;51.450;7.346;2023-04-04T07:46:26;9.55;;;3.22;;
12587;SDS011;6359;51.450;7.346;2023-04-04T07:48:52;5.03;;;3.17;;
12587;SDS011;6359;51.450;7.346;2023-04-04T07:51:19;6.07;;;3.00;;
12587;SDS011;6359;51.450;7.346;2023-04-04T07:53:53;4.80;;;2.83;;
12587;SDS011;6359;51.450;7.346;2023-04-04T07:56:20;6.38;;;3.30;;
12587;SDS011;6359;51.450;7.346;2023-04-04T07:58:47;5.72;;;2.88;;
12587;SDS011;6359;51.450;7.346;2023-04-04T08:01:16;5.50;;;2.55;;
12587;SDS011;6359;51.450;7.346;2023-04-04T08:03:43;7.07;;;2.55;;
12587;SDS011;6359;51.450;7.346;2023-04-04T08:06:10;4.95;;;3.05;;
12587;SDS011;6359;51.450;7.346;2023-04-04T08:08:37;3.30;;;2.40;;
12587;SDS011;6359;51.450;7.346;2023-04-04T08:11:05;3.47;;;2.60;;
12587;SDS011;6359;51.450;7.346;2023-04-04T08:13:32;7.85;;;2.50;;
12587;SDS011;6359;51.450;7.346;2023-04-04T08:15:59;5.18;;;2.40;;
12587;SDS011;6359;51.450;7.346;2023-04-04T08:18:27;9.48;;;2.20;;
12587;SDS011;6359;51.450;7.346;2023-04-04T08:20:54;3.55;;;2.22;;
12587;SDS011;6359;51.450;7.346;2023-04-04T08:23:21;4.70;;;2.25;;
12587;SDS011;6359;51.450;7.346;2023-04-04T08:25:48;3.70;;;2.47;;
12587;SDS011;6359;51.450;7.346;2023-04-04T08:28:16;6.05;;;2.38;;
12587;SDS011;6359;51.450;7.346;2023-04-04T08:30:43;5.20;;;2.47;;
12587;SDS011;6359;51.450;7.346;2023-04-04T08:33:10;5.47;;;2.42;;
12587;SDS011;6359;51.450;7.346;2023-04-04T08:35:38;3.88;;;2.10;;
12587;SDS011;6359;51.450;7.346;2023-04-04T08:38:05;9.57;;;2.50;;
12587;SDS011;6359;51.450;7.346;2023-04-04T08:40:32;9.07;;;2.63;;
12587;SDS011;6359;51.450;7.346;2023-04-04T08:42:59;6.57;;;2.60;;
12587;SDS011;6359;51.450;7.346;2023-04-04T08:45:29;4.22;;;2.00;;
12587;SDS011;6359;51.450;7.346;2023-04-04T08:47:58;7.28;;;2.38;;
12587;SDS011;6359;51.450;7.346;2023-04-04T08:50:28;5.75;;;2.70;;
12587;SDS011;6359;51.450;7.346;2023-04-04T08:52:59;6.75;;;1.95;;
12587;SDS011;6359;51.450;7.346;2023-04-04T08:55:28;5.03;;;2.60;;
12587;SDS011;6359;51.450;7.346;2023-04-04T08:57:56;6.45;;;1.80;;
12587;SDS011;6359;51.450;7.346;2023-04-04T09:00:23;4.68;;;1.88;;
12587;SDS011;6359;51.450;7.346;2023-04-04T09:02:52;4.78;;;1.77;;
12587;SDS011;6359;51.450;7.346;2023-04-04T09:05:22;5.97;;;1.77;;
12587;SDS011;6359;51.450;7.346;2023-04-04T09:07:51;6.22;;;2.08;;
12587;SDS011;6359;51.450;7.346;2023-04-04T09:10:20;3.75;;;1.77;;
12587;SDS011;6359;51.450;7.346;2023-04-04T09:12:47;2.72;;;1.92;;
12587;SDS011;6359;51.450;7.346;2023-04-04T09:15:16;7.35;;;1.92;;
12587;SDS011;6359;51.450;7.346;2023-04-04T09:17:43;2.22;;;1.77;;
12587;SDS011;6359;51.450;7.346;2023-04-04T09:23:00;2.78;;;1.60;;
12587;SDS011;6359;51.450;7.346;2023-04-04T09:25:31;5.22;;;1.80;;
12587;SDS011;6359;51.450;7.346;2023-04-04T09:27:59;3.85;;;1.73;;
12587;SDS011;6359;51.450;7.346;2023-04-04T09:30:29;3.25;;;1.63;;
12587;SDS011;6359;51.450;7.346;2023-04-04T09:32:58;3.47;;;1.70;;
12587;SDS011;6359;51.450;7.346;2023-04-04T09:35:27;2.20;;;1.70;;
12587;SDS011;6359;51.450;7.346;2023-04-04T09:37:54;6.47;;;1.90;;
12587;SDS011;6359;51.450;7.346;2023-04-04T09:40:21;6.05;;;2.05;;
12587;SDS011;6359;51.450;7.346;2023-04-04T09:42:53;4.30;;;1.80;;
12587;SDS011;6359;51.450;7.346;2023-04-04T09:45:22;4.60;;;1.65;;
12587;SDS011;6359;51.450;7.346;2023-04-04T09:47:51;3.60;;;1.98;;
12587;SDS011;6359;51.450;7.346;2023-04-04T09:50:19;3.67;;;1.60;;
12587;SDS011;6359;51.450;7.346;2023-04-04T09:52:48;4.70;;;1.90;;
12587;SDS011;6359;51.450;7.346;2023-04-04T09:55:15;5.97;;;1.98;;
12587;SDS011;6359;51.450;7.346;2023-04-04T09:57:45;3.95;;;2.05;;
12587;SDS011;6359;51.450;7.346;2023-04-04T10:00:17;7.00;;;1.80;;
12587;SDS011;6359;51.450;7.346;2023-04-04T10:02:46;4.70;;;1.90;;
12587;SDS011;6359;51.450;7.346;2023-04-04T10:05:15;5.40;;;2.08;;
12587;SDS011;6359;51.450;7.346;2023-04-04T10:07:42;4.90;;;1.58;;
12587;SDS011;6359;51.450;7.346;2023-04-04T10:10:12;1.67;;;1.48;;
12587;SDS011;6359;51.450;7.346;2023-04-04T10:12:43;2.97;;;1.92;;
12587;SDS011;6359;51.450;7.346;2023-04-04T10:15:13;4.68;;;1.85;;
12587;SDS011;6359;51.450;7.346;2023-04-04T10:17:41;4.47;;;2.22;;
12587;SDS011;6359;51.450;7.346;2023-04-04T10:20:10;4.30;;;1.77;;
12587;SDS011;6359;51.450;7.346;2023-04-04T10:22:37;3.47;;;1.85;;
12587;SDS011;6359;51.450;7.346;2023-04-04T10:25:06;7.22;;;2.17;;
12587;SDS011;6359;51.450;7.346;2023-04-04T10:27:33;5.90;;;2.00;;
12587;SDS011;6359;51.450;7.346;2023-04-04T10:30:02;4.50;;;2.05;;
12587;SDS011;6359;51.450;7.346;2023-04-04T10:32:35;5.35;;;1.85;;
12587;SDS011;6359;51.450;7.346;2023-04-04T10:35:08;5.95;;;1.98;;
12587;SDS011;6359;51.450;7.346;2023-04-04T10:37:39;5.00;;;1.92;;
12587;SDS011;6359;51.450;7.346;2023-04-04T10:40:11;3.40;;;1.40;;
12587;SDS011;6359;51.450;7.346;2023-04-04T10:42:43;3.25;;;1.77;;
12587;SDS011;6359;51.450;7.346;2023-04-04T10:45:12;5.65;;;2.03;;
12587;SDS011;6359;51.450;7.346;2023-04-04T10:47:42;2.10;;;1.65;;
12587;SDS011;6359;51.450;7.346;2023-04-04T10:50:11;4.88;;;2.10;;
12587;SDS011;6359;51.450;7.346;2023-04-04T10:52:40;6.13;;;1.85;;
12587;SDS011;6359;51.450;7.346;2023-04-04T10:55:12;2.60;;;1.73;;
12587;SDS011;6359;51.450;7.346;2023-04-04T10:57:41;2.42;;;1.40;;
12587;SDS011;6359;51.450;7.346;2023-04-04T11:00:11;2.38;;;1.70;;
12587;SDS011;6359;51.450;7.346;2023-04-04T11:02:44;4.13;;;1.60;;
12587;SDS011;6359;51.450;7.346;2023-04-04T11:05:21;4.82;;;1.77;;
12587;SDS011;6359;51.450;7.346;2023-04-04T11:07:56;4.03;;;1.88;;
12587;SDS011;6359;51.450;7.346;2023-04-04T11:10:25;3.20;;;1.50;;
12587;SDS011;6359;51.450;7.346;2023-04-04T11:12:54;3.03;;;1.70;;
12587;SDS011;6359;51.450;7.346;2023-04-04T11:15:28;3.17;;;1.85;;
12587;SDS011;6359;51.450;7.346;2023-04-04T11:18:13;4.63;;;1.67;;
12587;SDS011;6359;51.450;7.346;2023-04-04T11:20:41;5.70;;;1.90;;
12587;SDS011;6359;51.450;7.346;2023-04-04T11:23:13;5.55;;;2.03;;
12587;SDS011;6359;51.450;7.346;2023-04-04T11:25:48;5.68;;;2.30;;
12587;SDS011;6359;51.450;7.346;2023-04-04T11:28:26;3.15;;;2.10;;
12587;SDS011;6359;51.450;7.346;2023-04-04T11:31:24;3.85;;;2.53;;
12587;SDS011;6359;51.450;7.346;2023-04-04T11:33:55;2.42;;;1.90;;
12587;SDS011;6359;51.450;7.346;2023-04-04T11:36:24;4.50;;;2.20;;
12587;SDS011;6359;51.450;7.346;2023-04-04T11:39:21;4.97;;;1.83;;
12587;SDS011;6359;51.450;7.346;2023-04-04T11:41:52;2.65;;;1.70;;
12587;SDS011;6359;51.450;7.346;2023-04-04T11:44:21;3.40;;;1.80;;
12587;SDS011;6359;51.450;7.346;2023-04-04T11:46:53;3.25;;;1.88;;
12587;SDS011;6359;51.450;7.346;2023-04-04T11:49:25;3.88;;;2.28;;
12587;SDS011;6359;51.450;7.346;2023-04-04T11:51:54;3.40;;;1.90;;
12587;SDS011;6359;51.450;7.346;2023-04-04T11:54:21;6.78;;;2.30;;
12587;SDS011;6359;51.450;7.346;2023-04-04T11:56:49;7.40;;;1.73;;
12587;SDS011;6359;51.450;7.346;2023-04-04T11:59:17;5.22;;;1.85;;
12587;SDS011;6359;51.450;7.346;2023-04-04T12:01:45;7.47;;;5.07;;
12587;SDS011;6359;51.450;7.346;2023-04-04T12:04:15;8.48;;;4.38;;
12587;SDS011;6359;51.450;7.346;2023-04-04T12:06:47;2.33;;;1.80;;
12587;SDS011;6359;51.450;7.346;2023-04-04T12:09:16;4.32;;;2.58;;
12587;SDS011;6359;51.450;7.346;2023-04-04T12:11:44;5.20;;;2.38;;
12587;SDS011;6359;51.450;7.346;2023-04-04T12:14:15;2.25;;;1.77;;
12587;SDS011;6359;51.450;7.346;2023-04-04T12:16:43;6.72;;;2.28;;
12587;SDS011;6359;51.450;7.346;2023-04-04T12:19:10;5.47;;;2.05;;
12587;SDS011;6359;51.450;7.346;2023-04-04T12:21:37;6.18;;;1.90;;
12587;SDS011;6359;51.450;7.346;2023-04-04T12:24:07;4.13;;;2.38;;
12587;SDS011;6359;51.450;7.346;2023-04-04T12:26:35;3.08;;;1.92;;
12587;SDS011;6359;51.450;7.346;2023-04-04T12:29:03;6.25;;;3.08;;
12587;SDS011;6359;51.450;7.346;2023-04-04T12:31:31;4.53;;;2.70;;
12587;SDS011;6359;51.450;7.346;2023-04-04T12:33:59;3.35;;;1.80;;
12587;SDS011;6359;51.450;7.346;2023-04-04T12:36:28;6.88;;;1.80;;
12587;SDS011;6359;51.450;7.346;2023-04-04T12:38:56;4.75;;;2.30;;
12587;SDS011;6359;51.450;7.346;2023-04-04T12:41:27;3.13;;;2.17;;
12587;SDS011;6359;51.450;7.346;2023-04-04T12:44:00;2.55;;;1.80;;
12587;SDS011;6359;51.450;7.346;2023-04-04T12:46:33;2.13;;;1.92;;
12587;SDS011;6359;51.450;7.346;2023-04-04T12:49:02;3.38;;;2.65;;
12587;SDS011;6359;51.450;7.346;2023-04-04T12:51:32;2.70;;;1.88;;
12587;SDS011;6359;51.450;7.346;2023-04-04T12:54:00;8.68;;;2.10;;
12587;SDS011;6359;51.450;7.346;2023-04-04T12:56:32;2.65;;;1.80;;
12587;SDS011;6359;51.450;7.346;2023-04-04T12:59:01;2.97;;;1.70;;
12587;SDS011;6359;51.450;7.346;2023-04-04T13:01:29;3.55;;;1.98;;
12587;SDS011;6359;51.450;7.346;2023-04-04T13:03:59;3.08;;;1.92;;
12587;SDS011;6359;51.450;7.346;2023-04-04T13:06:29;4.45;;;1.98;;
12587;SDS011;6359;51.450;7.346;2023-04-04T13:08:56;4.25;;;2.15;;
12587;SDS011;6359;51.450;7.346;2023-04-04T13:11:24;2.70;;;1.90;;
12587;SDS011;6359;51.450;7.346;2023-04-04T13:14:00;2.00;;;1.90;;
12587;SDS011;6359;51.450;7.346;2023-04-04T13:16:28;4.05;;;2.13;;
12587;SDS011;6359;51.450;7.346;2023-04-04T13:18:57;3.67;;;2.30;;
12587;SDS011;6359;51.450;7.346;2023-04-04T13:21:24;7.07;;;2.17;;
12587;SDS011;6359;51.450;7.346;2023-04-04T13:23:52;3.80;;;2.00;;
12587;SDS011;6359;51.450;7.346;2023-04-04T13:26:19;2.60;;;2.10;;
12587;SDS011;6359;51.450;7.346;2023-04-04T13:28:47;6.35;;;3.88;;
12587;SDS011;6359;51.450;7.346;2023-04-04T13:31:15;4.28;;;1.98;;
12587;SDS011;6359;51.450;7.346;2023-04-04T13:33:42;5.63;;;1.95;;
12587;SDS011;6359;51.450;7.346;2023-04-04T13:36:10;3.95;;;2.05;;
12587;SDS011;6359;51.450;7.346;2023-04-04T13:38:38;3.08;;;2.20;;
12587;SDS011;6359;51.450;7.346;2023-04-04T13:41:05;4.20;;;2.38;;
12587;SDS011;6359;51.450;7.346;2023-04-04T13:43:32;4.25;;;2.70;;
12587;SDS011;6359;51.450;7.346;2023-04-04T13:45:59;3.70;;;1.88;;
12587;SDS011;6359;51.450;7.346;2023-04-04T13:48:28;1.80;;;1.70;;
12587;SDS011;6359;51.450;7.346;2023-04-04T13:50:55;2.65;;;1.92;;
12587;SDS011;6359;51.450;7.346;2023-04-04T13:53:22;5.43;;;2.00;;
12587;SDS011;6359;51.450;7.346;2023-04-04T13:55:49;3.67;;;1.98;;
12587;SDS011;6359;51.450;7.346;2023-04-04T13:58:16;3.28;;;1.90;;
12587;SDS011;6359;51.450;7.346;2023-04-04T14:00:45;4.07;;;2.28;;
12587;SDS011;6359;51.450;7.346;2023-04-04T14:03:13;4.63;;;2.08;;
12587;SDS011;6359;51.450;7.346;2023-04-04T14:05:42;6.60;;;2.05;;
12587;SDS011;6359;51.450;7.346;2023-04-04T14:08:09;4.10;;;2.20;;
12587;SDS011;6359;51.450;7.346;2023-04-04T14:10:36;2.55;;;1.77;;
12587;SDS011;6359;51.450;7.346;2023-04-04T14:13:03;4.10;;;2.15;;
12587;SDS011;6359;51.450;7.346;2023-04-04T14:15:30;2.75;;;1.98;;
12587;SDS011;6359;51.450;7.346;2023-04-04T14:17:58;3.78;;;2.00;;
12587;SDS011;6359;51.450;7.346;2023-04-04T14:20:25;4.57;;;1.80;;
12587;SDS011;6359;51.450;7.346;2023-04-04T14:22:53;3.40;;;2.10;;
12587;SDS011;6359;51.450;7.346;2023-04-04T14:25:21;2.88;;;1.90;;
12587;SDS011;6359;51.450;7.346;2023-04-04T14:27:48;2.35;;;1.88;;
12587;SDS011;6359;51.450;7.346;2023-04-04T14:30:15;2.35;;;1.90;;
12587;SDS011;6359;51.450;7.346;2023-04-04T14:32:42;2.92;;;2.03;;
12587;SDS011;6359;51.450;7.346;2023-04-04T14:35:10;7.50;;;2.40;;
12587;SDS011;6359;51.450;7.346;2023-04-04T14:37:37;2.58;;;2.15;;
12587;SDS011;6359;51.450;7.346;2023-04-04T14:40:06;2.97;;;2.35;;
12587;SDS011;6359;51.450;7.346;2023-04-04T14:42:34;3.20;;;2.30;;
12587;SDS011;6359;51.450;7.346;2023-04-04T14:45:01;3.78;;;2.03;;
12587;SDS011;6359;51.450;7.346;2023-04-04T14:47:31;4.80;;;2.10;;
12587;SDS011;6359;51.450;7.346;2023-04-04T14:49:58;4.07;;;2.40;;
12587;SDS011;6359;51.450;7.346;2023-04-04T14:52:26;6.50;;;2.10;;
12587;SDS011;6359;51.450;7.346;2023-04-04T14:54:54;4.80;;;2.00;;
12587;SDS011;6359;51.450;7.346;2023-04-04T14:57:23;2.97;;;2.10;;
12587;SDS011;6359;51.450;7.346;2023-04-04T14:59:50;2.72;;;2.10;;
12587;SDS011;6359;51.450;7.346;2023-04-04T15:02:18;4.57;;;2.50;;
12587;SDS011;6359;51.450;7.346;2023-04-04T15:04:46;2.78;;;2.10;;
12587;SDS011;6359;51.450;7.346;2023-04-04T15:07:13;2.70;;;2.15;;
12587;SDS011;6359;51.450;7.346;2023-04-04T15:09:40;5.53;;;2.42;;